createdAt,value
2022-08-23T00:02:25.612Z,101282.84
2022-08-23T00:05:07.338Z,101279.72
2022-08-23T00:07:38.400Z,101280.06
2022-08-23T00:10:06.397Z,101276.13
2022-08-23T00:12:33.072Z,101271.41
2022-08-23T00:14:59.532Z,101274.09
2022-08-23T00:17:33.841Z,101275.63
2022-08-23T00:20:06.643Z,101275.19
2022-08-23T00:22:33.657Z,101272.06
2022-08-23T00:25:00.203Z,101269.69
2022-08-23T00:27:27.533Z,101271.59
2022-08-23T00:29:56.010Z,101268.44
2022-08-23T00:32:28.711Z,101276.94
2022-08-23T00:34:55.479Z,101278.81
2022-08-23T00:37:22.563Z,101270.44
2022-08-23T00:39:49.155Z,101275.44
2022-08-23T00:42:57.211Z,101267.03
2022-08-23T00:45:49.388Z,101267.13
2022-08-23T00:48:16.295Z,101272.94
2022-08-23T00:51:00.435Z,101275.06
2022-08-23T00:53:37.694Z,101271.69
2022-08-23T00:56:07.329Z,101273.03
2022-08-23T00:58:33.891Z,101272.56
2022-08-23T01:01:02.707Z,101272.56
2022-08-23T01:03:38.385Z,101270.22
2022-08-23T01:06:27.440Z,101273.41
2022-08-23T01:08:59.725Z,101276.31
2022-08-23T01:11:37.818Z,101272.94
2022-08-23T01:14:11.882Z,101263.75
2022-08-23T01:16:45.540Z,101268.78
2022-08-23T01:19:23.361Z,101273.53
2022-08-23T01:21:59.769Z,101279.34
2022-08-23T01:25:06.018Z,101271.72
2022-08-23T01:27:14.682Z,101283.66
2022-08-23T01:29:41.797Z,101288.69
2022-08-23T01:32:09.759Z,101292.91
2022-08-23T01:34:37.607Z,101285.56
2022-08-23T01:37:11.552Z,101300.63
2022-08-23T01:39:38.365Z,101295.91
2022-08-23T01:42:08.056Z,101295.91
2022-08-23T01:44:35.322Z,101298.09
2022-08-23T01:47:03.560Z,101306.47
2022-08-23T01:49:30.375Z,101302.78
2022-08-23T01:51:56.840Z,101307.03
2022-08-23T01:54:23.411Z,101298.84
2022-08-23T01:56:50.019Z,101291.50
2022-08-23T01:59:16.570Z,101300.22
2022-08-23T02:01:50.684Z,101296.31
2022-08-23T02:04:17.376Z,101298.69
2022-08-23T02:06:43.860Z,101303.72
2022-08-23T02:09:17.876Z,101291.31
2022-08-23T02:11:46.013Z,101295.53
2022-08-23T02:14:18.687Z,101287.38
2022-08-23T02:17:03.887Z,101285.81
2022-08-23T02:19:37.797Z,101292.97
2022-08-23T02:22:07.923Z,101292.19
2022-08-23T02:24:35.364Z,101292.72
2022-08-23T02:27:05.296Z,101285.34
2022-08-23T02:29:39.188Z,101286.44
2022-08-23T02:32:07.527Z,101290.09
2022-08-23T02:37:20.314Z,101291.75
2022-08-23T02:39:47.341Z,101297.56
2022-08-23T02:42:14.447Z,101312.06
2022-08-23T02:44:43.071Z,101309.72
2022-08-23T02:47:11.894Z,101299.66
2022-08-23T02:49:41.903Z,101301.56
2022-08-23T02:52:08.515Z,101302.88
2022-08-23T02:54:36.548Z,101296.31
2022-08-23T02:57:03.916Z,101294.47
2022-08-23T02:59:31.279Z,101295.81
2022-08-23T03:01:58.862Z,101302.38
2022-08-23T03:04:31.135Z,101287.63
2022-08-23T03:06:57.739Z,101290.53
2022-08-23T03:09:24.412Z,101296.13
2022-08-23T03:11:51.134Z,101298.78
2022-08-23T03:14:19.709Z,101304.31
2022-08-23T03:16:46.676Z,101303.00
2022-08-23T03:19:13.515Z,101313.03
2022-08-23T03:21:40.090Z,101299.88
2022-08-23T03:24:11.399Z,101300.69
2022-08-23T03:26:42.531Z,101303.84
2022-08-23T03:29:10.113Z,101308.06
2022-08-23T03:31:53.939Z,101303.34
2022-08-23T03:34:21.258Z,101303.13
2022-08-23T03:36:47.945Z,101317.06
2022-08-23T03:39:14.537Z,101326.09
2022-08-23T03:41:41.000Z,101327.63
2022-08-23T03:44:07.780Z,101317.38
2022-08-23T03:46:38.339Z,101321.59
2022-08-23T03:49:05.998Z,101325.03
2022-08-23T03:51:42.725Z,101328.47
2022-08-23T03:54:09.452Z,101334.28
2022-08-23T03:56:40.060Z,101331.16
2022-08-23T03:59:11.394Z,101338.25
2022-08-23T04:01:38.006Z,101329.09
2022-08-23T04:04:04.533Z,101339.34
2022-08-23T04:06:33.071Z,101328.28
2022-08-23T04:08:59.741Z,101328.78
2022-08-23T04:11:26.493Z,101334.34
2022-08-23T04:13:57.996Z,101335.69
2022-08-23T04:16:25.607Z,101341.00
2022-08-23T04:18:52.169Z,101345.47
2022-08-23T04:21:22.949Z,101342.31
2022-08-23T04:23:49.801Z,101342.84
2022-08-23T04:26:16.427Z,101344.75
2022-08-23T04:28:44.508Z,101348.94
2022-08-23T04:31:12.366Z,101341.34
2022-08-23T04:33:42.081Z,101349.78
2022-08-23T04:36:11.800Z,101360.84
2022-08-23T04:38:38.358Z,101351.63
2022-08-23T04:41:25.242Z,101360.34
2022-08-23T04:43:56.782Z,101355.63
2022-08-23T04:46:24.356Z,101364.31
2022-08-23T04:48:54.013Z,101369.34
2022-08-23T04:51:22.237Z,101367.75
2022-08-23T04:53:49.324Z,101369.09
2022-08-23T04:56:39.250Z,101365.91
2022-08-23T04:59:08.254Z,101373.31
2022-08-23T05:01:42.781Z,101365.44
2022-08-23T05:04:09.922Z,101373.84
2022-08-23T05:06:38.816Z,101377.28
2022-08-23T05:09:05.864Z,101378.34
2022-08-23T05:11:34.529Z,101384.16
2022-08-23T05:14:01.776Z,101382.06
2022-08-23T05:16:29.162Z,101388.38
2022-08-23T05:19:00.612Z,101385.22
2022-08-23T05:21:27.272Z,101379.41
2022-08-23T05:23:54.985Z,101385.22
2022-08-23T05:26:24.363Z,101386.28
2022-08-23T05:28:50.940Z,101386.28
2022-08-23T05:31:24.707Z,101392.09
2022-08-23T05:33:53.811Z,101389.19
2022-08-23T05:36:27.569Z,101384.72
2022-08-23T05:38:54.101Z,101394.75
2022-08-23T05:41:21.190Z,101393.97
2022-08-23T05:43:50.436Z,101390.53
2022-08-23T05:46:20.013Z,101398.69
2022-08-23T05:48:57.033Z,101399.47
2022-08-23T05:51:31.498Z,101399.47
2022-08-23T05:54:02.034Z,101409.75
2022-08-23T05:56:42.501Z,101412.97
2022-08-23T05:59:16.691Z,101411.88
2022-08-23T06:01:44.095Z,101421.06
2022-08-23T06:04:15.546Z,101416.38
2022-08-23T06:06:44.103Z,101422.41
2022-08-23T06:09:15.609Z,101421.88
2022-08-23T06:11:44.944Z,101416.84
2022-08-23T06:14:12.999Z,101419.50
2022-08-23T06:16:46.514Z,101421.88
2022-08-23T06:19:16.404Z,101430.28
2022-08-23T06:22:03.516Z,101429.22
2022-08-23T06:24:34.904Z,101425.03
2022-08-23T06:27:12.995Z,101427.38
2022-08-23T06:29:41.080Z,101426.59
2022-08-23T06:32:26.184Z,101425.56
2022-08-23T06:35:39.314Z,101430.53
2022-08-23T06:38:12.949Z,101439.50
2022-08-23T06:41:08.909Z,101441.56
2022-08-23T06:43:55.682Z,101439.19
2022-08-23T06:46:56.264Z,101439.97
2022-08-23T06:49:24.627Z,101444.69
2022-08-23T06:51:53.669Z,101439.16
2022-08-23T06:54:31.426Z,101439.41
2022-08-23T06:57:15.833Z,101440.44
2022-08-23T07:00:02.695Z,101444.38
2022-08-23T07:02:43.513Z,101439.66
2022-08-23T07:05:35.310Z,101441.19
2022-08-23T07:08:22.101Z,101445.16
2022-08-23T07:10:48.773Z,101440.91
2022-08-23T07:13:18.479Z,101435.38
2022-08-23T07:15:45.288Z,101442.97
2022-08-23T07:18:20.057Z,101441.41
2022-08-23T07:20:46.557Z,101444.78
2022-08-23T07:23:13.053Z,101454.56
2022-08-23T07:25:40.482Z,101454.03
2022-08-23T07:28:11.697Z,101453.50
2022-08-23T07:30:43.306Z,101449.53
2022-08-23T07:33:12.651Z,101456.88
2022-08-23T07:35:59.434Z,101458.16
2022-08-23T07:38:29.962Z,101452.88
2022-08-23T07:40:58.785Z,101454.69
2022-08-23T07:43:25.535Z,101454.94
2022-08-23T07:45:53.164Z,101452.78
2022-08-23T07:48:43.305Z,101454.06
2022-08-23T07:51:14.481Z,101455.94
2022-08-23T07:53:45.808Z,101463.25
2022-08-23T07:56:16.389Z,101457.94
2022-08-23T07:58:56.274Z,101449.78
2022-08-23T08:01:54.972Z,101453.16
2022-08-23T08:04:23.793Z,101451.59
2022-08-23T08:07:05.192Z,101449.72
2022-08-23T08:09:42.392Z,101448.38
2022-08-23T08:12:10.999Z,101451.97
2022-08-23T08:14:41.895Z,101445.91
2022-08-23T08:17:09.534Z,101459.56
2022-08-23T08:19:58.870Z,101448.97
2022-08-23T08:22:49.924Z,101449.22
2022-08-23T08:26:05.580Z,101453.41
2022-08-23T08:28:35.069Z,101447.06
2022-08-23T08:31:04.100Z,101445.72
2022-08-23T08:33:34.389Z,101455.19
2022-08-23T08:36:04.662Z,101451.19
2022-08-23T08:38:38.805Z,101451.44
2022-08-23T08:41:23.627Z,101453.75
2022-08-23T08:44:09.139Z,101449.97
2022-08-23T08:46:41.930Z,101450.72
2022-08-23T08:49:18.290Z,101453.00
2022-08-23T08:51:58.755Z,101451.13
2022-08-23T08:54:27.566Z,101458.97
2022-08-23T08:56:58.683Z,101460.56
2022-08-23T08:59:43.896Z,101458.88
2022-08-23T09:02:33.113Z,101461.50
2022-08-23T09:05:09.869Z,101460.97
2022-08-23T09:07:36.480Z,101462.78
2022-08-23T09:10:21.609Z,101465.38
2022-08-23T09:13:19.852Z,101474.00
2022-08-23T09:15:56.606Z,101474.50
2022-08-23T09:18:24.290Z,101467.50
2022-08-23T09:20:54.897Z,101467.19
2022-08-23T09:23:26.046Z,101462.41
2022-08-23T09:26:02.623Z,101453.63
2022-08-23T09:28:36.451Z,101465.16
2022-08-23T09:31:04.682Z,101469.88
2022-08-23T09:33:45.852Z,101463.53
2022-08-23T09:36:38.479Z,101465.66
2022-08-23T09:39:24.412Z,101467.13
2022-08-23T09:42:00.740Z,101468.94
2022-08-23T09:44:43.414Z,101456.19
2022-08-23T09:47:17.045Z,101456.66
2022-08-23T09:49:51.989Z,101445.50
2022-08-23T09:52:22.694Z,101453.91
2022-08-23T09:55:03.322Z,101448.00
2022-08-23T09:57:34.304Z,101456.97
2022-08-23T10:00:41.685Z,101444.22
2022-08-23T10:03:28.017Z,101441.06
2022-08-23T10:06:30.993Z,101445.13
2022-08-23T10:09:05.137Z,101435.84
2022-08-23T10:11:45.206Z,101436.06
2022-08-23T10:14:18.264Z,101441.00
2022-08-23T10:17:15.185Z,101437.53
2022-08-23T10:20:33.943Z,101431.16
2022-08-23T10:23:23.861Z,101438.19
2022-08-23T10:26:00.861Z,101430.81
2022-08-23T10:29:16.546Z,101426.81
2022-08-23T10:31:58.945Z,101419.91
2022-08-23T10:34:46.011Z,101424.63
2022-08-23T10:37:43.301Z,101411.84
2022-08-23T10:40:30.231Z,101415.47
2022-08-23T10:43:26.182Z,101411.22
2022-08-23T10:46:00.518Z,101416.03
2022-08-23T10:48:51.808Z,101405.16
2022-08-23T10:51:31.768Z,101411.91
2022-08-23T10:54:18.744Z,101406.16
2022-08-23T10:56:50.946Z,101408.72
2022-08-23T10:59:23.946Z,101414.81
2022-08-23T11:02:24.117Z,101409.19
2022-08-23T11:05:27.023Z,101417.03
2022-08-23T11:08:11.163Z,101414.13
2022-08-23T11:10:41.691Z,101409.44
2022-08-23T11:13:29.368Z,101400.91
2022-08-23T11:15:58.440Z,101404.03
2022-08-23T11:18:28.990Z,101400.34
2022-08-23T11:21:25.986Z,101404.50
2022-08-23T11:23:58.149Z,101396.44
2022-08-23T11:26:25.939Z,101399.00
2022-08-23T11:29:20.101Z,101394.97
2022-08-23T11:32:02.892Z,101399.78
2022-08-23T11:34:48.165Z,101398.44
2022-08-23T11:37:21.930Z,101398.53
2022-08-23T11:39:57.411Z,101401.56
2022-08-23T11:42:39.114Z,101398.88
2022-08-23T11:45:31.295Z,101397.09
2022-08-23T11:48:14.415Z,101400.22
2022-08-23T11:50:58.269Z,101395.25
2022-08-23T11:53:46.331Z,101389.56
2022-08-23T11:56:36.641Z,101390.56
2022-08-23T11:59:41.982Z,101391.44
2022-08-23T12:02:49.706Z,101397.72
2022-08-23T12:05:22.711Z,101398.13
2022-08-23T12:08:17.311Z,101398.13
2022-08-23T12:10:44.054Z,101396.66
2022-08-23T12:13:19.514Z,101391.41
2022-08-23T12:16:16.751Z,101399.94
2022-08-23T12:18:47.613Z,101398.69
2022-08-23T12:21:44.059Z,101396.91
2022-08-23T12:24:16.298Z,101395.63
2022-08-23T12:26:42.693Z,101394.28
2022-08-23T12:29:22.908Z,101387.53
2022-08-23T12:31:56.421Z,101390.31
2022-08-23T12:35:13.503Z,101383.56
2022-08-23T12:37:51.489Z,101387.03
2022-08-23T12:40:31.731Z,101384.69
2022-08-23T12:43:22.763Z,101381.41
2022-08-23T12:45:59.614Z,101381.88
2022-08-23T12:48:32.168Z,101375.78
2022-08-23T12:51:06.352Z,101379.50
2022-08-23T12:53:44.516Z,101381.06
2022-08-23T12:56:19.237Z,101379.59
2022-08-23T12:58:52.077Z,101375.78
2022-08-23T13:01:30.176Z,101372.56
2022-08-23T13:04:14.145Z,101375.75
2022-08-23T13:06:49.533Z,101365.63
2022-08-23T13:09:21.985Z,101367.22
2022-08-23T13:11:48.964Z,101370.78
2022-08-23T13:14:37.010Z,101367.28
2022-08-23T13:17:17.943Z,101362.66
2022-08-23T13:19:46.672Z,101368.13
2022-08-23T13:22:22.024Z,101353.75
2022-08-23T13:25:28.587Z,101347.91
2022-08-23T13:27:53.056Z,101349.09
2022-08-23T13:30:26.221Z,101348.59
2022-08-23T13:33:12.604Z,101350.31
2022-08-23T13:35:40.651Z,101350.72
2022-08-23T13:38:21.339Z,101353.28
2022-08-23T13:41:06.668Z,101350.00
2022-08-23T13:43:45.892Z,101361.31
2022-08-23T13:46:19.450Z,101354.75
2022-08-23T13:48:51.862Z,101344.81
2022-08-23T13:51:20.724Z,101352.69
2022-08-23T13:53:47.371Z,101347.41
2022-08-23T13:56:15.502Z,101351.31
2022-08-23T13:58:42.655Z,101354.88
2022-08-23T14:01:18.955Z,101346.31
2022-08-23T14:03:47.490Z,101340.69
2022-08-23T14:06:14.421Z,101347.16
2022-08-23T14:08:40.873Z,101337.00
2022-08-23T14:11:08.037Z,101338.59
2022-08-23T14:13:37.746Z,101347.19
2022-08-23T14:19:16.796Z,101345.25
2022-08-23T14:21:49.952Z,101333.13
2022-08-23T14:24:17.769Z,101340.19
2022-08-23T14:26:51.750Z,101335.16
2022-08-23T14:29:21.566Z,101334.38
2022-08-23T14:31:50.056Z,101337.88
2022-08-23T14:34:16.581Z,101341.78
2022-08-23T14:38:00.232Z,101334.81
2022-08-23T14:39:29.469Z,101333.03
2022-08-23T14:41:55.900Z,101332.47
2022-08-23T14:44:22.399Z,101331.13
2022-08-23T14:46:48.886Z,101327.03
2022-08-23T14:49:15.492Z,101329.19
2022-08-23T14:51:46.384Z,101332.13
2022-08-23T14:54:20.513Z,101327.84
2022-08-23T14:56:47.269Z,101327.84
2022-08-23T14:59:14.401Z,101328.03
2022-08-23T15:01:41.339Z,101317.34
2022-08-23T15:04:08.290Z,101321.59
2022-08-23T15:06:35.433Z,101316.94
2022-08-23T15:09:02.415Z,101322.78
2022-08-23T15:14:15.814Z,101321.66
2022-08-23T15:16:42.323Z,101322.66
2022-08-23T15:19:08.816Z,101321.88
2022-08-23T15:21:35.373Z,101312.72
2022-08-23T15:24:02.615Z,101322.09
2022-08-23T15:26:31.305Z,101326.78
2022-08-23T15:28:59.523Z,101312.72
2022-08-23T15:31:27.122Z,101327.34
2022-08-23T15:33:53.963Z,101323.63
2022-08-23T15:36:20.822Z,101320.91
2022-08-23T15:38:48.681Z,101315.84
2022-08-23T15:41:17.885Z,101324.03
2022-08-23T15:43:44.617Z,101313.88
2022-08-23T15:46:22.638Z,101323.84
2022-08-23T15:48:54.692Z,101317.63
2022-08-23T15:51:22.758Z,101308.47
2022-08-23T15:53:49.294Z,101317.84
2022-08-23T15:56:20.317Z,101305.72
2022-08-23T15:58:48.044Z,101315.69
2022-08-23T16:01:14.878Z,101315.88
2022-08-23T16:03:44.969Z,101305.75
2022-08-23T16:06:13.226Z,101311.78
2022-08-23T16:08:42.912Z,101306.53
2022-08-23T16:11:12.761Z,101308.69
2022-08-23T16:13:42.553Z,101312.78
2022-08-23T16:16:17.585Z,101311.63
2022-08-23T16:18:44.369Z,101317.66
2022-08-23T16:21:12.448Z,101319.63
2022-08-23T16:23:40.056Z,101319.03
2022-08-23T16:26:15.094Z,101313.19
2022-08-23T16:28:48.120Z,101316.28
2022-08-23T16:31:15.747Z,101312.41
2022-08-23T16:33:42.670Z,101311.25
2022-08-23T16:36:10.146Z,101312.97
2022-08-23T16:38:38.160Z,101310.28
2022-08-23T16:41:04.744Z,101318.25
2022-08-23T16:43:31.303Z,101312.06
2022-08-23T16:45:57.808Z,101312.25
2022-08-23T16:48:24.366Z,101312.03
2022-08-23T16:50:50.840Z,101317.53
2022-08-23T16:53:17.536Z,101318.47
2022-08-23T16:55:44.140Z,101322.56
2022-08-23T16:58:10.922Z,101321.41
2022-08-23T17:00:38.803Z,101321.81
2022-08-23T17:03:06.823Z,101322.56
2022-08-23T17:05:33.479Z,101324.34
2022-08-23T17:08:00.102Z,101320.81
2022-08-23T17:10:26.883Z,101321.00
2022-08-23T17:12:55.543Z,101328.44
2022-08-23T17:15:29.049Z,101328.44
2022-08-23T17:17:55.647Z,101333.50
2022-08-23T17:20:25.753Z,101340.16
2022-08-23T17:22:52.544Z,101336.63
2022-08-23T17:25:19.470Z,101340.91
2022-08-23T17:27:47.136Z,101341.69
2022-08-23T17:30:16.769Z,101337.22
2022-08-23T17:32:44.351Z,101345.78
2022-08-23T17:35:14.926Z,101345.59
2022-08-23T17:37:42.405Z,101351.47
2022-08-23T17:40:13.653Z,101344.84
2022-08-23T17:42:42.523Z,101348.34
2022-08-23T17:45:10.899Z,101356.38
2022-08-23T17:47:37.383Z,101355.38
2022-08-23T17:50:05.144Z,101358.31
2022-08-23T17:52:32.228Z,101362.59
2022-08-23T17:54:59.350Z,101366.69
2022-08-23T17:57:25.954Z,101362.00
2022-08-23T17:59:53.220Z,101366.31
2022-08-23T18:02:20.671Z,101372.00
2022-08-23T18:04:48.074Z,101371.78
2022-08-23T18:07:14.592Z,101370.22
2022-08-23T18:09:48.229Z,101381.53
2022-08-23T18:12:15.674Z,101379.19
2022-08-23T18:14:42.355Z,101375.28
2022-08-23T18:17:08.820Z,101386.56
2022-08-23T18:19:35.417Z,101387.75
2022-08-23T18:22:02.608Z,101389.09
2022-08-23T18:24:29.476Z,101385.78
2022-08-23T18:27:16.892Z,101385.00
2022-08-23T18:29:51.503Z,101395.53
2022-08-23T18:32:18.726Z,101398.06
2022-08-23T18:34:45.416Z,101401.38
2022-08-23T18:37:11.933Z,101401.75
2022-08-23T18:39:38.448Z,101406.63
2022-08-23T18:42:05.922Z,101406.22
2022-08-23T18:44:32.739Z,101409.50
2022-08-23T18:47:01.970Z,101407.75
2022-08-23T18:49:29.045Z,101413.22
2022-08-23T18:51:56.515Z,101423.16
2022-08-23T18:54:22.952Z,101421.19
2022-08-23T18:56:49.408Z,101420.19
2022-08-23T18:59:15.899Z,101427.00
2022-08-23T19:01:44.927Z,101437.13
2022-08-23T19:04:13.037Z,101426.56
2022-08-23T19:06:40.982Z,101436.31
2022-08-23T19:09:08.707Z,101441.16
2022-08-23T19:11:39.327Z,101441.31
2022-08-23T19:14:07.148Z,101441.69
2022-08-23T19:16:35.230Z,101439.72
2022-08-23T19:19:01.795Z,101442.22
2022-08-23T19:21:28.323Z,101444.72
2022-08-23T19:23:56.714Z,101447.44
2022-08-23T19:26:31.774Z,101449.16
2022-08-23T19:29:04.821Z,101462.56
2022-08-23T19:31:36.055Z,101455.53
2022-08-23T19:34:05.441Z,101460.19
2022-08-23T19:36:45.884Z,101455.47
2022-08-23T19:39:15.938Z,101460.13
2022-08-23T19:41:42.575Z,101463.41
2022-08-23T19:44:09.639Z,101471.53
2022-08-23T19:46:41.237Z,101469.97
2022-08-23T19:49:10.488Z,101464.50
2022-08-23T19:51:37.597Z,101474.72
2022-08-23T19:54:11.154Z,101484.06
2022-08-23T19:56:51.854Z,101483.41
2022-08-23T19:59:27.870Z,101486.91
2022-08-23T20:01:55.477Z,101488.63
2022-08-23T20:04:24.384Z,101490.56
2022-08-23T20:06:51.106Z,101496.72
2022-08-23T20:09:19.281Z,101489.69
2022-08-23T20:11:46.393Z,101492.19
2022-08-23T20:14:12.919Z,101496.22
2022-08-23T20:16:40.937Z,101504.78
2022-08-23T20:19:09.502Z,101498.28
2022-08-23T20:21:36.040Z,101506.59
2022-08-23T20:24:03.696Z,101509.31
2022-08-23T20:26:48.490Z,101510.22
2022-08-23T20:29:20.977Z,101510.81
2022-08-23T20:31:53.534Z,101512.69
2022-08-23T20:34:21.516Z,101516.53
2022-08-23T20:36:50.283Z,101511.84
2022-08-23T20:39:21.825Z,101511.38
2022-08-23T20:41:51.064Z,101499.25
2022-08-23T20:44:20.649Z,101503.50
2022-08-23T20:46:50.735Z,101510.50
2022-08-23T20:49:20.129Z,101505.81
2022-08-23T20:51:46.702Z,101509.59
2022-08-23T20:54:14.726Z,101511.53
2022-08-23T20:56:41.348Z,101518.50
2022-08-23T20:59:08.912Z,101514.56
2022-08-23T21:01:35.898Z,101523.09
2022-08-23T21:04:03.425Z,101527.13
2022-08-23T21:06:38.039Z,101515.59
2022-08-23T21:09:04.842Z,101522.22
2022-08-23T21:11:31.431Z,101523.34
2022-08-23T21:13:58.612Z,101519.97
2022-08-23T21:16:26.110Z,101526.38
2022-08-23T21:18:54.396Z,101520.88
2022-08-23T21:21:23.229Z,101527.81
2022-08-23T21:23:50.066Z,101530.50
2022-08-23T21:26:16.901Z,101526.59
2022-08-23T21:28:43.460Z,101523.22
2022-08-23T21:31:15.616Z,101517.19
2022-08-23T21:33:42.965Z,101520.66
2022-08-23T21:36:10.582Z,101522.56
2022-08-23T21:38:37.601Z,101521.31
2022-08-23T21:41:08.522Z,101512.31
2022-08-23T21:43:39.863Z,101511.84
2022-08-23T21:46:07.295Z,101514.56
2022-08-23T21:48:34.317Z,101518.59
2022-08-23T21:51:01.202Z,101515.66
2022-08-23T21:53:27.844Z,101510.97
2022-08-23T21:55:54.394Z,101512.06
2022-08-23T21:58:20.845Z,101514.78
2022-08-23T22:00:47.424Z,101509.28
2022-08-23T22:03:14.004Z,101511.16
2022-08-23T22:05:41.989Z,101515.44
2022-08-23T22:08:09.103Z,101508.38
2022-08-23T22:10:40.439Z,101508.94
2022-08-23T22:13:16.761Z,101503.44
2022-08-23T22:15:43.478Z,101497.38
2022-08-23T22:18:10.002Z,101496.13
2022-08-23T22:20:36.754Z,101501.94
2022-08-23T22:23:03.411Z,101497.25
2022-08-23T22:25:30.233Z,101501.50
2022-08-23T22:27:56.771Z,101503.41
2022-08-23T22:30:23.522Z,101503.72
2022-08-23T22:32:50.092Z,101518.84
2022-08-23T22:35:18.113Z,101514.13
2022-08-23T22:38:03.520Z,101514.47
2022-08-23T22:40:31.476Z,101514.00
2022-08-23T22:42:58.018Z,101513.78
2022-08-23T22:45:24.490Z,101519.38
2022-08-23T22:47:51.042Z,101503.00
2022-08-23T22:50:17.514Z,101512.28
2022-08-23T22:52:44.289Z,101521.31
2022-08-23T22:55:10.722Z,101518.41
2022-08-23T22:57:38.104Z,101512.34
2022-08-23T23:00:06.798Z,101517.16
2022-08-23T23:02:37.321Z,101523.31
2022-08-23T23:05:04.165Z,101521.72
2022-08-23T23:07:56.604Z,101531.56
2022-08-23T23:10:23.349Z,101525.31
2022-08-23T23:12:49.881Z,101535.34
2022-08-23T23:15:16.394Z,101521.13
2022-08-23T23:17:42.946Z,101534.66
2022-08-23T23:20:28.687Z,101530.72
2022-08-23T23:22:55.206Z,101526.03
2022-08-23T23:25:22.017Z,101529.47
2022-08-23T23:27:48.777Z,101531.91
2022-08-23T23:30:15.328Z,101527.41
2022-08-23T23:32:43.229Z,101528.50
2022-08-23T23:35:10.420Z,101537.03
2022-08-23T23:37:37.746Z,101538.13
2022-08-23T23:40:05.317Z,101539.47
2022-08-23T23:42:32.155Z,101544.25
2022-08-23T23:44:58.608Z,101557.78
2022-08-23T23:47:25.050Z,101548.81
2022-08-23T23:49:51.650Z,101548.34
2022-08-23T23:52:18.231Z,101556.03
2022-08-23T23:54:44.755Z,101544.72
2022-08-23T23:57:11.386Z,101547.38
2022-08-23T23:59:38.533Z,101548.19
